Time;durP1;ratioP1;P1;durP2;ratioP2;P2;SDS_P1;SDS_P2;PMS_P1;PMS_P2;Temp;Humidity;BMP_temperature;BMP_pressure;BME280_temperature;BME280_humidity;BME280_pressure;Samples;Min_cycle;Max_cycle;Signal;HPM_P1;HPM_P2
2021/09/07 00:00:49;;;;;;;9.15;6.88;;;;;;;10.05;87.84;93967.94;5072406;28;20048;-76
2021/09/07 00:03:16;;;;;;;11.35;6.80;;;;;;;9.79;88.43;93930.84;5069165;28;20413;-76
2021/09/07 00:05:43;;;;;;;10.68;6.80;;;;;;;10.10;88.40;93968.13;5068835;28;20059;-76
2021/09/07 00:08:09;;;;;;;10.77;6.63;;;;;;;10.13;87.52;93967.78;5068916;28;20094;-76
2021/09/07 00:10:36;;;;;;;10.52;7.18;;;;;;;9.94;88.91;93947.88;5068997;28;20501;-76
2021/09/07 00:13:03;;;;;;;10.30;7.10;;;;;;;10.11;87.96;93954.34;5068972;28;20052;-76
2021/09/07 00:15:30;;;;;;;11.73;6.40;;;;;;;10.26;87.25;93966.25;5068782;28;20044;-76
2021/09/07 00:17:59;;;;;;;11.82;7.40;;;;;;;10.22;86.91;93958.16;5068873;28;20045;-76
2021/09/07 00:20:26;;;;;;;10.63;6.65;;;;;;;10.15;87.26;93967.59;5068802;28;20055;-76
2021/09/07 00:22:52;;;;;;;11.93;7.97;;;;;;;10.13;87.18;93962.63;5071604;28;20489;-76
2021/09/07 00:25:19;;;;;;;13.57;7.63;;;;;;;10.21;86.85;93960.91;5072655;28;20067;-75
2021/09/07 00:27:46;;;;;;;12.63;6.80;;;;;;;10.15;86.41;93950.41;5072640;28;20055;-75
2021/09/07 00:30:14;;;;;;;11.60;7.05;;;;;;;10.19;86.20;93955.16;5072574;28;20049;-75
2021/09/07 00:32:40;;;;;;;10.93;7.20;;;;;;;10.00;86.50;93929.97;5052978;28;20172;-76
2021/09/07 00:35:11;;;;;;;10.98;7.03;;;;;;;10.05;86.21;93967.94;5068024;28;20052;-75
2021/09/07 00:37:39;;;;;;;11.00;6.97;;;;;;;10.10;86.33;93972.50;5072758;28;20052;-75
2021/09/07 00:40:07;;;;;;;10.68;6.75;;;;;;;9.98;86.38;93962.75;5072681;28;20140;-76
2021/09/07 00:42:36;;;;;;;11.32;6.90;;;;;;;9.66;88.07;93966.63;5072421;28;20106;-75
2021/09/07 00:45:05;;;;;;;10.70;6.65;;;;;;;9.80;87.95;93970.91;5072171;28;20074;-75
2021/09/07 00:47:32;;;;;;;10.10;6.72;;;;;;;9.79;87.29;93981.34;5072385;28;20052;-75
2021/09/07 00:49:59;;;;;;;10.15;6.80;;;;;;;9.61;87.88;93988.50;5072720;28;20059;-75
2021/09/07 00:52:27;;;;;;;11.50;6.68;;;;;;;9.57;88.69;93984.72;5072509;28;20064;-75
2021/09/07 00:54:56;;;;;;;13.32;8.00;;;;;;;9.69;88.40;93969.63;5072643;28;20404;-76
2021/09/07 00:57:25;;;;;;;9.75;6.90;;;;;;;9.60;88.54;93973.31;5072066;28;20516;-76
2021/09/07 00:59:52;;;;;;;10.85;6.53;;;;;;;9.37;89.45;93966.59;5072604;28;20048;-76
2021/09/07 01:02:19;;;;;;;11.95;6.82;;;;;;;9.52;89.60;93968.28;5072090;28;20504;-76
2021/09/07 01:04:46;;;;;;;10.32;7.28;;;;;;;9.56;89.56;93959.25;5072004;28;20051;-76
2021/09/07 01:07:13;;;;;;;10.82;6.50;;;;;;;9.52;89.65;93963.16;5072182;28;20052;-76
2021/09/07 01:09:42;;;;;;;13.25;7.57;;;;;;;9.44;89.88;93962.31;5068927;28;20044;-75
2021/09/07 01:12:10;;;;;;;11.55;7.63;;;;;;;9.50;89.63;93963.38;5072105;28;20057;-76
2021/09/07 01:14:38;;;;;;;12.10;7.40;;;;;;;9.59;89.36;93961.47;5071851;28;20048;-76
2021/09/07 01:17:11;;;;;;;12.10;6.95;;;;;;;9.62;88.61;93959.31;5072150;28;20115;-76
2021/09/07 01:19:38;;;;;;;10.85;7.22;;;;;;;9.68;88.02;93962.13;5072034;28;20041;-76
2021/09/07 01:22:05;;;;;;;11.02;7.18;;;;;;;9.62;87.91;93956.75;5071497;28;20505;-76
2021/09/07 01:24:35;;;;;;;12.07;7.10;;;;;;;9.54;87.88;93935.56;5071603;28;20048;-76
2021/09/07 01:27:05;;;;;;;11.15;7.22;;;;;;;9.69;87.32;93961.13;5071786;28;20472;-75
2021/09/07 01:29:33;;;;;;;10.02;6.65;;;;;;;9.60;86.78;93955.34;5071455;28;20052;-75
2021/09/07 01:32:00;;;;;;;11.15;7.72;;;;;;;9.63;87.50;93962.69;5057868;28;20124;-76
2021/09/07 01:34:28;;;;;;;10.02;6.57;;;;;;;9.57;87.40;93966.78;5070456;28;20066;-76
2021/09/07 01:36:55;;;;;;;10.15;6.75;;;;;;;9.56;87.86;93965.19;5091589;28;20063;-76
2021/09/07 01:39:22;;;;;;;12.45;7.72;;;;;;;9.55;88.08;93973.88;5091366;28;20497;-76
2021/09/07 01:41:51;;;;;;;11.13;7.40;;;;;;;9.56;87.35;93959.25;5091747;28;20041;-76
2021/09/07 01:44:19;;;;;;;11.57;6.97;;;;;;;9.47;87.08;93963.72;5091516;28;20496;-75
2021/09/07 01:46:46;;;;;;;10.05;7.18;;;;;;;9.43;87.74;93957.34;5091858;28;20048;-76
2021/09/07 01:49:14;;;;;;;10.13;6.97;;;;;;;9.50;87.73;93960.78;5091663;28;20094;-76
2021/09/07 01:51:42;;;;;;;11.20;7.47;;;;;;;9.48;87.44;93963.53;5091587;28;20059;-76
2021/09/07 01:54:10;;;;;;;10.38;6.63;;;;;;;9.47;87.38;93958.59;5091484;28;20048;-76
2021/09/07 01:56:38;;;;;;;12.55;7.03;;;;;;;9.32;87.19;93946.66;5091107;28;20518;-76
2021/09/07 01:59:06;;;;;;;10.85;7.43;;;;;;;9.29;87.15;93935.94;5090981;28;20512;-76
2021/09/07 02:01:33;;;;;;;11.55;7.57;;;;;;;9.34;87.49;93954.94;5091349;28;20052;-76
2021/09/07 02:04:00;;;;;;;10.27;6.95;;;;;;;9.27;87.62;93941.28;5080695;28;20052;-76
2021/09/07 02:06:28;;;;;;;9.88;6.53;;;;;;;9.29;88.01;93951.31;5059284;28;20056;-76
2021/09/07 02:08:55;;;;;;;10.07;6.65;;;;;;;9.27;88.16;93948.16;5060943;28;20133;-76
2021/09/07 02:11:21;;;;;;;11.30;7.07;;;;;;;9.26;88.18;93944.00;5050643;28;20099;-76
2021/09/07 02:13:48;;;;;;;12.13;7.97;;;;;;;9.12;88.84;93946.44;5050904;28;20053;-76
2021/09/07 02:16:16;;;;;;;11.88;7.05;;;;;;;9.01;89.17;93939.22;5050988;28;20040;-76
2021/09/07 02:18:43;;;;;;;10.82;7.18;;;;;;;9.09;89.25;93950.13;5050446;28;20063;-76
2021/09/07 02:21:10;;;;;;;12.20;6.55;;;;;;;9.07;89.21;93944.41;5060637;28;20048;-76
2021/09/07 02:23:37;;;;;;;11.05;6.75;;;;;;;8.97;89.20;93933.66;5069759;28;20040;-76
2021/09/07 02:26:04;;;;;;;10.77;6.90;;;;;;;9.08;89.29;93940.88;5069915;28;20409;-76
2021/09/07 02:28:30;;;;;;;14.65;7.13;;;;;;;9.09;89.12;93941.69;5069569;28;20048;-76
2021/09/07 02:30:57;;;;;;;11.50;7.25;;;;;;;9.06;89.43;93936.91;5066869;28;20036;-76
2021/09/07 02:33:25;;;;;;;13.27;6.88;;;;;;;9.08;89.45;93935.75;5071281;28;20053;-76
2021/09/07 02:35:52;;;;;;;12.90;7.07;;;;;;;9.09;89.34;93934.00;5090537;28;20071;-76
2021/09/07 02:38:19;;;;;;;11.40;7.53;;;;;;;9.14;88.79;93941.13;5090635;28;20048;-76
2021/09/07 02:40:46;;;;;;;12.13;7.00;;;;;;;9.06;89.20;93931.78;5090336;28;20052;-76
2021/09/07 02:43:13;;;;;;;12.35;7.53;;;;;;;8.93;89.92;93940.91;5090276;28;20758;-76
2021/09/07 02:45:39;;;;;;;10.52;6.97;;;;;;;8.84;90.97;93943.78;5090237;28;20048;-76
2021/09/07 02:48:06;;;;;;;13.10;7.18;;;;;;;8.86;90.44;93955.44;5078498;28;20048;-76
2021/09/07 02:50:34;;;;;;;11.38;6.75;;;;;;;8.85;90.93;93943.59;5069108;28;20040;-76
2021/09/07 02:53:01;;;;;;;11.27;7.53;;;;;;;8.81;90.74;93945.72;5069960;28;20055;-76
2021/09/07 02:55:28;;;;;;;10.82;7.07;;;;;;;8.45;91.22;93943.09;5067009;28;20497;-76
2021/09/07 02:57:55;;;;;;;11.02;7.00;;;;;;;8.53;91.77;93956.63;5068502;28;20409;-76
2021/09/07 03:00:22;;;;;;;13.57;7.88;;;;;;;8.42;92.94;93946.78;5065358;28;20059;-76
2021/09/07 03:02:48;;;;;;;12.15;7.10;;;;;;;8.47;93.02;93962.41;5069929;28;20048;-75
2021/09/07 03:05:15;;;;;;;12.63;6.80;;;;;;;8.50;92.38;93951.03;5069748;28;20048;-76
2021/09/07 03:07:43;;;;;;;10.70;6.88;;;;;;;8.48;92.26;93965.78;5069505;28;20049;-76
2021/09/07 03:10:11;;;;;;;12.52;7.90;;;;;;;8.50;93.29;93951.03;5069806;28;20044;-76
2021/09/07 03:12:38;;;;;;;13.85;9.13;;;;;;;8.27;95.37;93939.13;5069553;28;20041;-76
2021/09/07 03:15:06;;;;;;;15.73;8.65;;;;;;;8.38;94.57;93955.81;5069457;28;20464;-76
2021/09/07 03:17:32;;;;;;;12.30;7.82;;;;;;;8.47;94.17;93953.97;5069636;28;20044;-76
2021/09/07 03:19:59;;;;;;;13.38;8.25;;;;;;;8.46;93.65;93945.47;5069428;28;20482;-76
2021/09/07 03:22:29;;;;;;;13.75;8.88;;;;;;;8.54;93.70;93944.63;5069616;28;20436;-76
2021/09/07 03:24:58;;;;;;;12.00;8.18;;;;;;;8.59;93.40;93936.38;5069402;28;20511;-75
2021/09/07 03:27:25;;;;;;;13.45;8.07;;;;;;;8.55;93.10;93948.75;5069426;28;20048;-75
2021/09/07 03:29:51;;;;;;;14.98;8.15;;;;;;;8.62;92.81;93943.72;5069604;28;20052;-75
2021/09/07 03:32:18;;;;;;;14.60;8.90;;;;;;;8.63;92.88;93948.69;5052748;28;20175;-76
2021/09/07 03:34:45;;;;;;;12.98;8.95;;;;;;;8.36;95.14;93934.72;5073590;28;20055;-76
2021/09/07 03:37:12;;;;;;;11.98;8.73;;;;;;;8.42;94.46;93937.38;5089249;28;20059;-76
2021/09/07 03:39:38;;;;;;;12.57;8.32;;;;;;;8.32;94.04;93936.06;5089346;28;20496;-75
2021/09/07 03:42:07;;;;;;;14.45;9.05;;;;;;;8.34;93.60;93946.91;5089330;28;20052;-76
2021/09/07 03:44:34;;;;;;;14.00;8.40;;;;;;;8.31;93.89;93939.56;5089421;28;20051;-75
2021/09/07 03:47:00;;;;;;;14.38;8.68;;;;;;;8.40;93.52;93946.19;5088930;28;20067;-76
2021/09/07 03:49:27;;;;;;;12.05;8.30;;;;;;;8.43;93.07;93959.44;5089438;28;21266;-75
2021/09/07 03:51:54;;;;;;;14.43;8.73;;;;;;;8.20;94.25;93935.69;5089383;28;20052;-75
2021/09/07 03:54:21;;;;;;;20.63;8.88;;;;;;;8.27;94.22;93954.47;5089032;28;20129;-75
2021/09/07 03:56:47;;;;;;;17.63;8.50;;;;;;;8.22;94.25;93954.22;5088822;28;20044;-75
2021/09/07 03:59:16;;;;;;;16.80;10.20;;;;;;;8.11;95.43;93958.03;5089013;28;20048;-75
2021/09/07 04:01:43;;;;;;;12.30;8.95;;;;;;;8.10;95.32;93944.41;5083169;28;20045;-75
2021/09/07 04:04:10;;;;;;;16.17;8.70;;;;;;;8.19;96.32;93946.91;5069060;28;20409;-75
2021/09/07 04:06:38;;;;;;;12.18;8.63;;;;;;;8.33;96.53;93950.44;5068725;28;20528;-76
2021/09/07 04:09:04;;;;;;;15.55;9.40;;;;;;;8.18;95.66;93953.00;5069066;28;20052;-75
2021/09/07 04:11:31;;;;;;;17.08;8.88;;;;;;;8.34;95.80;93962.25;5068688;28;20448;-75
2021/09/07 04:13:58;;;;;;;17.67;9.43;;;;;;;8.45;95.39;93945.66;5068633;28;20052;-76
2021/09/07 04:16:26;;;;;;;16.30;10.02;;;;;;;8.41;96.07;93968.25;5068768;28;20444;-75
2021/09/07 04:18:53;;;;;;;28.13;11.25;;;;;;;8.42;95.08;93962.16;5068852;28;20049;-75
2021/09/07 04:21:20;;;;;;;17.73;8.70;;;;;;;8.51;94.85;93967.97;5068571;28;20060;-76
2021/09/07 04:23:47;;;;;;;16.13;10.07;;;;;;;8.42;96.20;93974.97;5068335;28;20056;-75
2021/09/07 04:26:32;;;;;;;15.07;10.20;;;;;;;8.52;95.60;93972.97;5059635;28;20040;-75
2021/09/07 04:28:59;;;;;;;;;;;;;;;8.36;98.96;93971.34;5059965;28;20056;-75
2021/09/07 04:31:27;;;;;;;16.80;10.85;;;;;;;8.35;97.83;93974.88;5057399;28;19925;-75
2021/09/07 04:33:54;;;;;;;19.40;10.85;;;;;;;8.46;96.48;93967.75;5057385;28;20189;-75
2021/09/07 04:36:21;;;;;;;20.08;10.77;;;;;;;8.51;96.44;93980.78;5058976;28;20051;-75
2021/09/07 04:38:48;;;;;;;20.75;10.73;;;;;;;8.59;95.93;93987.59;5057612;28;20055;-75
2021/09/07 04:41:15;;;;;;;21.52;11.27;;;;;;;8.63;95.80;93976.84;5057897;28;20044;-75
2021/09/07 04:43:41;;;;;;;16.70;10.32;;;;;;;8.70;96.47;93979.47;5058934;28;20055;-75
2021/09/07 04:46:08;;;;;;;14.60;9.85;;;;;;;8.75;95.80;93972.03;5057560;28;20045;-75
2021/09/07 04:48:37;;;;;;;14.73;9.90;;;;;;;8.80;95.93;93966.41;5057391;28;20502;-75
2021/09/07 04:51:04;;;;;;;16.13;9.90;;;;;;;8.99;94.67;93979.59;5058613;28;20059;-75
2021/09/07 04:53:30;;;;;;;18.20;10.70;;;;;;;9.01;94.90;93996.41;5058246;28;20049;-75
2021/09/07 04:55:57;;;;;;;15.90;10.82;;;;;;;9.04;95.42;93988.38;5057355;28;20048;-75
2021/09/07 04:58:24;;;;;;;16.05;11.02;;;;;;;9.07;95.71;93966.69;5057134;28;20051;-75
2021/09/07 05:00:51;;;;;;;21.77;11.60;;;;;;;9.11;96.37;93983.28;5057939;28;20098;-75
2021/09/07 05:03:18;;;;;;;25.40;13.52;;;;;;;9.14;96.73;93984.69;5058795;28;20663;-75
2021/09/07 05:05:46;;;;;;;20.77;11.32;;;;;;;9.13;96.20;93983.13;5057276;28;20388;-75
2021/09/07 05:08:12;;;;;;;19.05;11.85;;;;;;;9.16;96.65;93987.88;5057668;28;20498;-75
2021/09/07 05:10:39;;;;;;;18.38;10.75;;;;;;;9.25;95.85;93983.44;5054451;28;20052;-75
2021/09/07 05:13:06;;;;;;;20.52;11.82;;;;;;;9.31;97.08;93985.28;5051889;28;20490;-75
2021/09/07 05:15:33;;;;;;;18.02;11.35;;;;;;;9.39;95.15;93982.56;5051998;28;20053;-75
2021/09/07 05:18:18;;;;;;;19.00;11.68;;;;;;;9.47;95.17;93986.78;5051861;28;20049;-75
2021/09/07 05:20:46;;;;;;;22.55;12.00;;;;;;;9.57;94.45;93994.97;5051620;28;20053;-75
2021/09/07 05:23:13;;;;;;;23.80;12.10;;;;;;;9.64;95.23;93987.34;5051999;28;20414;-75
2021/09/07 05:25:40;;;;;;;23.02;12.68;;;;;;;9.62;96.08;93984.97;5051936;28;20056;-75
2021/09/07 05:28:07;;;;;;;20.23;13.20;;;;;;;9.77;94.65;93986.69;5051887;28;20045;-75
2021/09/07 05:30:33;;;;;;;20.08;11.68;;;;;;;9.88;94.36;93983.59;5040874;28;20041;-76
2021/09/07 05:33:00;;;;;;;15.50;10.98;;;;;;;9.94;95.04;93966.66;5051797;28;20551;-75
2021/09/07 05:35:27;;;;;;;19.05;12.73;;;;;;;10.02;94.87;93956.25;5051415;28;20060;-75
2021/09/07 05:37:55;;;;;;;16.13;12.07;;;;;;;10.25;95.65;93980.91;5051445;28;20490;-75
2021/09/07 05:40:22;;;;;;;18.20;11.38;;;;;;;10.41;94.26;93987.50;5051074;28;20510;-75
2021/09/07 05:42:50;;;;;;;17.08;11.32;;;;;;;10.54;95.45;93986.81;5051286;28;20563;-75
2021/09/07 05:45:18;;;;;;;16.23;11.82;;;;;;;10.61;98.24;93976.56;5051209;28;20512;-75
2021/09/07 05:47:45;;;;;;;18.63;12.02;;;;;;;10.77;94.42;93982.34;5051307;28;20128;-75
2021/09/07 05:50:14;;;;;;;18.30;12.27;;;;;;;10.94;93.96;93988.75;5051371;28;20060;-75
2021/09/07 05:52:42;;;;;;;16.52;12.23;;;;;;;11.14;93.85;93987.22;5051279;28;20052;-75
2021/09/07 05:55:12;;;;;;;21.67;13.30;;;;;;;11.29;95.49;93974.22;5051236;28;20045;-75
2021/09/07 05:57:39;;;;;;;16.23;11.07;;;;;;;11.51;94.24;93977.44;5051348;28;20049;-75
2021/09/07 06:00:08;;;;;;;16.30;11.57;;;;;;;11.66;93.54;93973.88;5051064;28;20391;-75
2021/09/07 06:02:35;;;;;;;15.13;10.55;;;;;;;11.98;91.73;93982.59;5051185;28;20090;-75
2021/09/07 06:05:02;;;;;;;17.27;11.27;;;;;;;12.12;91.49;93969.72;5050654;28;20502;-75
2021/09/07 06:07:28;;;;;;;16.33;10.65;;;;;;;12.47;91.36;93984.13;5050760;28;20049;-75
2021/09/07 06:09:55;;;;;;;13.13;9.73;;;;;;;12.70;89.70;93989.63;5051052;28;20041;-75
2021/09/07 06:12:24;;;;;;;15.10;9.80;;;;;;;12.92;90.76;93976.47;5050607;28;20053;-75
2021/09/07 06:14:51;;;;;;;23.77;11.35;;;;;;;13.18;87.24;93985.09;5049317;28;20494;-75
2021/09/07 06:17:18;;;;;;;22.73;11.23;;;;;;;13.44;86.01;93973.03;5049102;28;20049;-75
2021/09/07 06:19:45;;;;;;;15.60;10.00;;;;;;;13.66;85.95;93971.94;5049285;28;20045;-75
2021/09/07 06:22:11;;;;;;;12.27;9.82;;;;;;;13.96;86.16;93972.09;5050649;28;20111;-76
2021/09/07 06:24:38;;;;;;;26.42;11.73;;;;;;;14.19;84.16;93968.13;5050410;28;20414;-76
2021/09/07 06:27:05;;;;;;;16.48;9.85;;;;;;;14.47;82.39;93972.03;5050499;28;20057;-75
2021/09/07 06:29:33;;;;;;;15.25;9.57;;;;;;;14.72;81.53;93967.78;5050271;28;20045;-75
2021/09/07 06:32:00;;;;;;;14.25;9.20;;;;;;;14.95;82.05;93962.00;5050254;28;20045;-76
2021/09/07 06:34:27;;;;;;;15.27;9.60;;;;;;;15.10;81.33;93959.78;5050061;28;20051;-76
2021/09/07 06:36:55;;;;;;;12.18;9.38;;;;;;;15.47;80.06;93971.06;5050115;28;20171;-76
2021/09/07 06:39:22;;;;;;;20.02;10.13;;;;;;;15.71;79.15;93964.16;5049916;28;20055;-76
2021/09/07 06:41:49;;;;;;;18.05;9.32;;;;;;;16.00;77.25;93971.28;5050041;28;20049;-76
2021/09/07 06:44:16;;;;;;;14.68;8.80;;;;;;;16.13;76.65;93965.09;5049979;28;20049;-76
2021/09/07 06:46:45;;;;;;;17.08;9.50;;;;;;;16.40;75.71;93970.59;5051497;28;20045;-76
2021/09/07 06:49:11;;;;;;;20.42;9.82;;;;;;;16.55;74.24;93944.22;5068961;28;20094;-76
2021/09/07 06:51:38;;;;;;;13.40;8.43;;;;;;;16.77;73.65;93946.22;5070107;28;20048;-76
2021/09/07 06:54:05;;;;;;;18.38;8.38;;;;;;;17.03;72.85;93958.91;5083997;28;20599;-76
2021/09/07 06:56:32;;;;;;;14.88;7.68;;;;;;;17.28;72.41;93960.38;5089910;28;20060;-76
2021/09/07 06:58:59;;;;;;;14.13;7.47;;;;;;;17.41;69.89;93956.72;5089902;28;20101;-76
2021/09/07 07:01:26;;;;;;;17.23;6.32;;;;;;;17.32;68.47;93958.91;5090303;28;20048;-76
2021/09/07 07:03:54;;;;;;;13.25;7.47;;;;;;;17.15;68.18;93964.03;5090123;28;20121;-76
2021/09/07 07:06:20;;;;;;;11.65;5.88;;;;;;;17.35;69.33;93959.22;5072626;28;20373;-76
2021/09/07 07:08:47;;;;;;;10.63;6.07;;;;;;;17.61;68.02;93954.47;5069803;28;20489;-75
2021/09/07 07:11:14;;;;;;;9.75;5.22;;;;;;;17.89;67.28;93962.41;5069785;28;20052;-76
2021/09/07 07:13:41;;;;;;;12.65;6.45;;;;;;;18.10;67.08;93958.34;5069693;28;20481;-76
2021/09/07 07:16:08;;;;;;;10.07;5.82;;;;;;;18.15;66.07;93950.59;5069807;28;20055;-76
2021/09/07 07:18:34;;;;;;;7.60;5.38;;;;;;;18.41;64.90;93950.16;5069457;28;20048;-76
2021/09/07 07:21:03;;;;;;;9.68;5.18;;;;;;;18.70;61.46;93965.63;5069315;28;20059;-76
2021/09/07 07:23:29;;;;;;;9.60;5.65;;;;;;;18.87;60.92;93962.16;5069284;28;20055;-76
2021/09/07 07:25:56;;;;;;;14.48;5.80;;;;;;;19.10;59.41;93971.56;5069134;28;20420;-76
2021/09/07 07:28:23;;;;;;;13.73;5.80;;;;;;;19.26;58.69;93964.72;5067817;28;20044;-76
2021/09/07 07:30:50;;;;;;;9.07;4.75;;;;;;;19.40;58.00;93965.13;5069006;28;20056;-76
2021/09/07 07:33:17;;;;;;;12.95;4.53;;;;;;;19.39;57.38;93934.88;5069120;28;20052;-76
2021/09/07 07:35:44;;;;;;;7.95;4.47;;;;;;;19.58;55.05;93952.78;5069165;28;20077;-76
2021/09/07 07:38:12;;;;;;;8.18;4.70;;;;;;;19.58;53.45;93955.38;5069370;28;20057;-76
2021/09/07 07:40:39;;;;;;;7.22;3.90;;;;;;;18.66;49.61;93961.94;5068991;28;20076;-76
2021/09/07 07:43:06;;;;;;;6.80;3.15;;;;;;;18.36;51.44;93940.50;5069420;28;20044;-76
2021/09/07 07:45:33;;;;;;;7.38;3.33;;;;;;;18.79;54.98;93953.00;5069440;28;20090;-75
2021/09/07 07:48:00;;;;;;;8.43;4.15;;;;;;;18.87;50.90;93970.78;5069331;28;20052;-76
2021/09/07 07:50:26;;;;;;;5.93;3.38;;;;;;;19.09;52.49;93938.75;5068931;28;20403;-76
2021/09/07 07:52:54;;;;;;;5.43;3.38;;;;;;;19.52;51.93;93949.31;5069220;28;20044;-76
2021/09/07 07:55:22;;;;;;;7.65;3.25;;;;;;;19.89;51.53;93959.00;5068936;28;20056;-75
2021/09/07 07:57:49;;;;;;;5.63;3.33;;;;;;;20.14;47.14;93964.69;5069094;28;20452;-76
2021/09/07 08:00:16;;;;;;;8.60;3.17;;;;;;;20.36;48.32;93948.91;5069371;28;20048;-76
2021/09/07 08:02:42;;;;;;;7.82;3.55;;;;;;;20.44;47.20;93945.03;5068874;28;20543;-76
2021/09/07 08:05:10;;;;;;;7.53;2.90;;;;;;;20.51;44.84;93957.84;5069306;28;20048;-76
2021/09/07 08:07:37;;;;;;;8.45;3.13;;;;;;;20.43;44.81;93951.28;5069379;28;20044;-76
2021/09/07 08:10:04;;;;;;;6.45;3.10;;;;;;;19.52;45.59;93941.50;5069091;28;20090;-76
2021/09/07 08:12:32;;;;;;;5.03;3.10;;;;;;;18.14;48.95;93954.25;5069030;28;20048;-76
2021/09/07 08:14:59;;;;;;;8.85;3.80;;;;;;;17.54;50.44;93951.22;5069213;28;20059;-76
2021/09/07 08:17:26;;;;;;;7.05;3.70;;;;;;;17.61;52.32;93958.88;5069036;28;20059;-76
2021/09/07 08:19:53;;;;;;;10.57;3.25;;;;;;;18.10;50.63;93952.38;5079257;28;20110;-77
2021/09/07 08:22:22;;;;;;;5.97;3.22;;;;;;;17.94;50.62;93935.72;5087514;28;20044;-77
2021/09/07 08:24:50;;;;;;;4.97;3.38;;;;;;;17.48;50.62;93939.97;5089230;28;20059;-76
2021/09/07 08:27:17;;;;;;;5.97;3.63;;;;;;;17.20;49.71;93920.00;5078765;28;20058;-76
2021/09/07 08:29:45;;;;;;;13.68;3.42;;;;;;;17.30;50.45;93955.72;5063864;28;20048;-76
2021/09/07 08:32:16;;;;;;;7.45;3.60;;;;;;;17.45;52.85;93950.81;5062774;28;20048;-76
2021/09/07 08:34:43;;;;;;;14.75;4.20;;;;;;;17.67;53.65;93946.75;5064993;28;20044;-76
2021/09/07 08:37:10;;;;;;;5.95;3.67;;;;;;;17.24;53.13;93944.47;5063052;28;20505;-76
2021/09/07 08:39:36;;;;;;;7.57;3.67;;;;;;;17.37;53.92;93956.41;5060655;28;20056;-76
2021/09/07 08:42:10;;;;;;;6.88;3.60;;;;;;;17.09;53.35;93938.00;5062689;28;20048;-76
2021/09/07 08:44:37;;;;;;;10.68;3.90;;;;;;;17.23;51.17;93941.09;5072453;28;20040;-76
2021/09/07 08:47:05;;;;;;;11.65;5.65;;;;;;;17.38;52.21;93926.81;5071392;28;20098;-77
2021/09/07 08:49:32;;;;;;;7.35;4.35;;;;;;;17.33;51.37;93943.09;5072287;28;20040;-76
2021/09/07 08:51:59;;;;;;;7.55;3.80;;;;;;;17.22;52.35;93928.38;5072498;28;20048;-76
2021/09/07 08:54:26;;;;;;;6.90;4.35;;;;;;;17.59;51.00;93922.72;5071969;28;20139;-75
2021/09/07 08:56:53;;;;;;;4.30;2.55;;;;;;;17.50;49.30;93922.31;5072227;28;20052;-75
2021/09/07 08:59:19;;;;;;;5.35;2.85;;;;;;;17.82;49.33;93930.63;5072018;28;20493;-76
2021/09/07 09:01:52;;;;;;;8.15;2.90;;;;;;;17.64;51.49;93924.63;5072318;28;20048;-76
2021/09/07 09:04:28;;;;;;;5.20;2.45;;;;;;;17.74;51.17;93926.59;5072196;28;20166;-76
2021/09/07 09:06:56;;;;;;;6.35;2.40;;;;;;;18.11;51.12;93926.13;5072281;28;20055;-76
2021/09/07 09:09:23;;;;;;;6.13;2.78;;;;;;;17.76;52.01;93917.53;5071649;28;20048;-76
2021/09/07 09:11:52;;;;;;;5.45;2.95;;;;;;;18.22;50.98;93934.03;5072151;28;20048;-76
2021/09/07 09:14:32;;;;;;;7.85;2.65;;;;;;;17.89;51.70;93916.44;5071731;28;20524;-76
2021/09/07 09:16:59;;;;;;;5.22;2.45;;;;;;;17.81;52.17;93903.06;5071660;28;20055;-76
2021/09/07 09:19:27;;;;;;;8.95;2.88;;;;;;;17.87;51.20;93921.06;5071872;28;20409;-76
2021/09/07 09:21:54;;;;;;;5.53;2.83;;;;;;;18.04;51.31;93915.06;5071641;28;20437;-76
2021/09/07 09:24:23;;;;;;;5.35;2.70;;;;;;;17.88;49.53;93909.63;5071532;28;20049;-76
2021/09/07 09:26:54;;;;;;;5.45;2.33;;;;;;;17.65;50.26;93881.25;5071933;28;20056;-76
2021/09/07 09:29:22;;;;;;;5.35;2.35;;;;;;;18.00;49.94;93937.34;5071834;28;20190;-76
2021/09/07 09:31:55;;;;;;;4.45;2.10;;;;;;;17.98;49.71;93910.81;5070420;28;20090;-76
2021/09/07 09:34:22;;;;;;;4.60;2.33;;;;;;;17.92;50.14;93899.59;5071473;28;20056;-76
2021/09/07 09:36:59;;;;;;;3.28;2.03;;;;;;;17.81;49.43;93882.28;5071674;28;20045;-77
2021/09/07 09:39:44;;;;;;;4.72;2.13;;;;;;;18.32;49.16;93910.78;5071838;28;20936;-76
2021/09/07 09:42:15;;;;;;;5.90;2.30;;;;;;;18.16;49.89;93902.00;5071439;28;20045;-76
2021/09/07 09:44:42;;;;;;;3.22;1.92;;;;;;;18.38;49.70;93898.66;5071606;28;20479;-76
2021/09/07 09:47:09;;;;;;;4.38;2.33;;;;;;;17.97;49.77;93909.25;5071221;28;20571;-76
2021/09/07 09:49:36;;;;;;;8.57;4.03;;;;;;;18.07;48.53;93914.63;5071540;28;20094;-76
2021/09/07 09:52:07;;;;;;;15.23;5.22;;;;;;;18.21;48.83;93909.06;5071342;28;20048;-77
2021/09/07 09:54:35;;;;;;;9.95;3.60;;;;;;;18.29;49.30;93908.69;5070720;28;20090;-76
2021/09/07 09:57:05;;;;;;;5.72;2.30;;;;;;;18.07;48.51;93880.03;5071110;28;20049;-76
2021/09/07 09:59:33;;;;;;;9.30;2.17;;;;;;;18.10;47.77;93892.56;5071042;28;20519;-76
2021/09/07 10:02:01;;;;;;;6.97;2.13;;;;;;;18.24;48.70;93891.19;5070949;28;20052;-76
2021/09/07 10:04:31;;;;;;;6.35;2.95;;;;;;;18.61;48.70;93902.03;5070977;28;20053;-76
2021/09/07 10:06:58;;;;;;;3.50;2.30;;;;;;;18.78;47.78;93900.16;5071246;28;20049;-76
2021/09/07 10:09:27;;;;;;;4.70;1.70;;;;;;;18.75;46.98;93890.22;5070795;28;20044;-77
2021/09/07 10:12:00;;;;;;;9.20;1.88;;;;;;;18.50;47.51;93911.53;5070867;28;20425;-76
2021/09/07 10:14:31;;;;;;;4.75;1.98;;;;;;;18.32;47.08;93897.78;5070713;28;20044;-77
2021/09/07 10:17:36;;;;;;;8.70;1.90;;;;;;;18.28;46.99;93899.28;5070932;28;20056;-77
2021/09/07 10:20:14;;;;;;;4.30;1.67;;;;;;;18.24;46.08;93895.59;5070612;28;20501;-77
2021/09/07 10:23:10;;;;;;;8.45;1.80;;;;;;;18.00;46.94;93878.38;5070829;28;20044;-77
2021/09/07 10:25:50;;;;;;;7.38;2.15;;;;;;;18.35;47.40;93886.91;5070475;28;20049;-77
2021/09/07 10:28:30;;;;;;;3.13;1.70;;;;;;;18.57;46.58;93896.53;5070496;28;20047;-77
2021/09/07 10:30:59;;;;;;;5.57;1.80;;;;;;;18.76;46.39;93881.41;5070380;28;20409;-77
2021/09/07 10:33:29;;;;;;;7.53;2.10;;;;;;;18.90;46.90;93896.63;5070465;28;20076;-78
2021/09/07 10:36:11;;;;;;;6.75;2.30;;;;;;;18.09;46.75;93878.78;5070549;28;20082;-78
2021/09/07 10:38:40;;;;;;;5.63;1.60;;;;;;;18.40;46.57;93889.56;5080519;28;20058;-78
2021/09/07 10:41:09;;;;;;;6.22;1.80;;;;;;;18.61;46.06;93889.03;5088762;28;20451;-78
2021/09/07 10:43:50;;;;;;;4.88;1.90;;;;;;;18.60;46.13;93871.84;5090341;28;20051;-77
2021/09/07 10:46:37;;;;;;;3.63;1.95;;;;;;;18.68;47.32;93882.59;5090538;28;20131;-77
2021/09/07 10:49:25;;;;;;;6.47;1.75;;;;;;;18.68;45.93;93874.81;5090394;28;20059;-77
2021/09/07 10:52:14;;;;;;;4.47;1.70;;;;;;;18.87;46.67;93891.88;5090373;28;20408;-77
2021/09/07 10:54:46;;;;;;;3.40;1.35;;;;;;;19.00;46.85;93878.50;5079369;28;20551;-78
2021/09/07 10:57:49;;;;;;;4.55;1.80;;;;;;;19.11;45.90;93891.66;5090497;28;20055;-78
2021/09/07 11:00:43;;;;;;;3.30;1.60;;;;;;;18.99;46.13;93883.94;5090566;28;20101;-78
2021/09/07 11:03:12;;;;;;;5.38;1.92;;;;;;;18.97;46.75;93865.97;5042462;28;20484;-79
2021/09/07 11:05:46;;;;;;;4.65;1.60;;;;;;;19.17;47.20;93864.63;5089984;28;20404;-79
2021/09/07 11:08:16;;;;;;;3.70;1.75;;;;;;;19.16;46.32;93870.88;5089777;28;20051;-77
2021/09/07 11:10:45;;;;;;;4.85;1.60;;;;;;;18.85;45.34;93873.13;5089970;28;20077;-77
2021/09/07 11:13:22;;;;;;;5.65;1.73;;;;;;;19.19;45.59;93865.94;5089741;28;20052;-77
2021/09/07 11:15:49;;;;;;;4.95;1.77;;;;;;;19.21;44.42;93879.50;5089948;28;20101;-79
2021/09/07 11:18:22;;;;;;;4.93;1.75;;;;;;;19.03;45.45;93872.03;5090043;28;20044;-77
2021/09/07 11:20:51;;;;;;;3.38;1.55;;;;;;;19.19;45.87;93876.38;5089813;28;20047;-77
2021/09/07 11:23:20;;;;;;;4.97;1.67;;;;;;;19.05;43.51;93886.41;5089529;28;20047;-78
2021/09/07 11:25:49;;;;;;;4.45;1.98;;;;;;;19.09;43.83;93871.06;5089509;28;20054;-78
2021/09/07 11:28:18;;;;;;;7.57;2.03;;;;;;;18.86;44.16;93861.69;5089821;28;20044;-78
2021/09/07 11:30:47;;;;;;;5.25;1.73;;;;;;;19.17;43.95;93856.81;5089450;28;20048;-79
2021/09/07 11:33:16;;;;;;;6.63;2.00;;;;;;;19.36;44.02;93863.22;5089681;28;20132;-78
2021/09/07 11:35:45;;;;;;;3.47;1.58;;;;;;;19.45;43.61;93860.94;5089157;28;20051;-78
2021/09/07 11:38:14;;;;;;;7.45;2.05;;;;;;;19.55;42.82;93865.47;5089519;28;20059;-77